createdAt,value
2019-04-09T00:00:02.081Z,6.90
2019-04-09T00:02:42.816Z,6.97
2019-04-09T00:05:12.802Z,7.57
2019-04-09T00:07:54.431Z,6.97
2019-04-09T00:10:15.317Z,6.20
2019-04-09T00:12:45.419Z,6.67
2019-04-09T00:15:15.666Z,6.43
2019-04-09T00:17:46.576Z,6.27
2019-04-09T00:20:18.533Z,5.90
2019-04-09T00:22:48.890Z,7.53
2019-04-09T00:25:18.647Z,6.73
2019-04-09T00:27:48.193Z,6.97
2019-04-09T00:30:17.785Z,7.20
2019-04-09T00:32:47.394Z,6.70
2019-04-09T00:35:16.998Z,6.73
2019-04-09T00:37:47.624Z,6.60
2019-04-09T00:40:17.641Z,6.60
2019-04-09T00:42:47.776Z,6.80
2019-04-09T00:45:17.858Z,7.23
2019-04-09T00:47:47.762Z,7.00
2019-04-09T00:50:17.391Z,6.27
2019-04-09T00:52:46.989Z,6.97
2019-04-09T00:55:16.860Z,7.23
2019-04-09T00:57:47.390Z,7.27
2019-04-09T01:00:19.155Z,7.17
2019-04-09T01:02:49.431Z,6.47
2019-04-09T01:05:19.602Z,6.40
2019-04-09T01:07:49.745Z,7.70
2019-04-09T01:10:19.428Z,7.30
2019-04-09T01:12:51.880Z,7.07
2019-04-09T01:15:20.428Z,7.23
2019-04-09T01:17:50.622Z,8.50
2019-04-09T01:20:21.014Z,7.10
2019-04-09T01:22:51.131Z,7.63
2019-04-09T01:25:39.255Z,7.10
2019-04-09T01:28:10.839Z,7.40
2019-04-09T01:30:51.275Z,6.93
2019-04-09T01:33:38.672Z,7.50
2019-04-09T01:36:17.032Z,8.30
2019-04-09T01:38:52.101Z,7.30
2019-04-09T01:41:25.476Z,7.07
2019-04-09T01:43:56.771Z,7.93
2019-04-09T01:46:31.018Z,7.23
2019-04-09T01:49:17.243Z,7.30
2019-04-09T01:51:47.127Z,6.73
2019-04-09T01:54:36.354Z,7.33
2019-04-09T01:57:05.806Z,7.50
2019-04-09T01:59:39.768Z,7.47
2019-04-09T02:02:11.206Z,8.07
2019-04-09T02:04:58.584Z,7.53
2019-04-09T02:07:39.046Z,8.60
2019-04-09T02:10:10.931Z,7.90
2019-04-09T02:12:42.694Z,8.40
2019-04-09T02:15:17.765Z,8.23
2019-04-09T02:17:47.067Z,7.83
2019-04-09T02:20:31.292Z,8.07
2019-04-09T02:23:03.092Z,8.57
2019-04-09T02:25:34.569Z,8.93
2019-04-09T02:28:08.943Z,9.03
2019-04-09T02:30:48.065Z,7.87
2019-04-09T02:33:21.434Z,9.08
2019-04-09T02:35:59.785Z,9.48
2019-04-09T02:38:34.563Z,8.57
2019-04-09T02:41:21.162Z,8.45
2019-04-09T02:44:08.663Z,9.30
2019-04-09T02:46:42.866Z,8.55
2019-04-09T02:49:14.700Z,10.38
2019-04-09T02:51:56.908Z,9.63
2019-04-09T02:54:27.275Z,9.05
2019-04-09T02:57:14.769Z,10.13
2019-04-09T03:00:03.418Z,9.10
2019-04-09T03:02:44.021Z,9.47
2019-04-09T03:05:18.295Z,9.55
2019-04-09T03:07:50.197Z,10.13
2019-04-09T03:10:34.006Z,8.33
2019-04-09T03:13:06.378Z,9.60
2019-04-09T03:15:36.091Z,10.75
2019-04-09T03:18:24.960Z,9.80
2019-04-09T03:21:08.574Z,8.90
2019-04-09T03:23:58.275Z,9.75
2019-04-09T03:26:27.658Z,10.10
2019-04-09T03:29:02.852Z,10.20
2019-04-09T03:34:20.543Z,10.18
2019-04-09T03:37:08.402Z,9.95
2019-04-09T03:39:46.883Z,10.65
2019-04-09T03:42:18.601Z,11.55
2019-04-09T03:44:53.816Z,11.55
2019-04-09T03:47:23.174Z,10.88
2019-04-09T03:50:12.900Z,10.30
2019-04-09T03:52:51.722Z,10.00
2019-04-09T03:55:40.741Z,11.93
2019-04-09T03:58:19.086Z,10.18
2019-04-09T04:00:47.723Z,10.82
2019-04-09T04:03:30.652Z,10.15
2019-04-09T04:06:11.665Z,10.93
2019-04-09T04:08:42.925Z,10.80
2019-04-09T04:11:23.266Z,11.78
2019-04-09T04:13:53.557Z,10.98
2019-04-09T04:16:24.118Z,12.18
2019-04-09T04:19:11.905Z,10.65
2019-04-09T04:21:52.499Z,10.43
2019-04-09T04:24:26.672Z,11.60
2019-04-09T04:27:14.207Z,10.82
2019-04-09T04:29:45.942Z,11.28
2019-04-09T04:32:23.097Z,11.00
2019-04-09T04:35:10.179Z,12.03
2019-04-09T04:37:47.395Z,11.50
2019-04-09T04:40:21.996Z,11.00
2019-04-09T04:42:55.153Z,13.45
2019-04-09T04:45:29.198Z,10.35
2019-04-09T04:48:09.477Z,11.97
2019-04-09T04:50:41.758Z,12.03
2019-04-09T04:53:13.273Z,11.78
2019-04-09T04:55:49.417Z,12.03
2019-04-09T04:58:20.612Z,11.45
2019-04-09T05:00:57.595Z,11.28
2019-04-09T05:03:36.084Z,11.57
2019-04-09T05:06:19.965Z,10.90
2019-04-09T05:09:02.827Z,11.60
2019-04-09T05:11:33.281Z,11.35
2019-04-09T05:14:17.133Z,11.65
2019-04-09T05:16:48.851Z,12.15
2019-04-09T05:19:36.170Z,11.95
2019-04-09T05:22:17.003Z,12.68
2019-04-09T05:24:46.980Z,12.00
2019-04-09T05:27:27.287Z,11.28
2019-04-09T05:30:02.612Z,11.00
2019-04-09T05:32:50.021Z,10.83
2019-04-09T05:35:37.418Z,11.68
2019-04-09T05:38:11.442Z,11.50
2019-04-09T05:41:00.086Z,12.03
2019-04-09T05:43:48.090Z,12.70
2019-04-09T05:46:19.575Z,10.80
2019-04-09T05:49:11.854Z,11.48
2019-04-09T05:51:45.977Z,11.12
2019-04-09T05:54:33.651Z,11.63
2019-04-09T05:57:21.978Z,12.50
2019-04-09T05:59:59.800Z,11.10
2019-04-09T06:02:31.785Z,10.97
2019-04-09T06:05:02.625Z,10.13
2019-04-09T06:07:53.475Z,9.80
2019-04-09T06:10:23.961Z,10.87
2019-04-09T06:12:53.728Z,11.30
2019-04-09T06:15:23.695Z,10.90
2019-04-09T06:17:54.014Z,11.28
2019-04-09T06:20:25.656Z,9.30
2019-04-09T06:22:55.209Z,10.60
2019-04-09T06:25:25.850Z,10.30
2019-04-09T06:27:55.781Z,10.47
2019-04-09T06:30:27.114Z,9.77
2019-04-09T06:32:59.617Z,9.80
2019-04-09T06:35:31.944Z,9.83
2019-04-09T06:38:19.531Z,9.87
2019-04-09T06:40:55.253Z,9.20
2019-04-09T06:43:30.406Z,8.60
2019-04-09T06:45:59.835Z,9.47
2019-04-09T06:48:34.158Z,12.37
2019-04-09T06:51:08.277Z,9.37
2019-04-09T06:53:37.576Z,9.33
2019-04-09T06:56:15.981Z,10.07
2019-04-09T06:58:55.984Z,9.73
2019-04-09T07:01:35.815Z,10.20
2019-04-09T07:04:23.750Z,9.73
2019-04-09T07:07:01.836Z,10.03
2019-04-09T07:09:51.688Z,9.03
2019-04-09T07:12:23.012Z,9.00
2019-04-09T07:14:55.219Z,9.50
2019-04-09T07:17:31.584Z,9.43
2019-04-09T07:20:19.963Z,9.47
2019-04-09T07:22:55.819Z,9.37
2019-04-09T07:25:27.883Z,8.90
2019-04-09T07:27:58.122Z,8.17
2019-04-09T07:30:32.212Z,9.27
2019-04-09T07:33:11.244Z,9.47
2019-04-09T07:35:50.652Z,7.93
2019-04-09T07:38:22.586Z,9.23
2019-04-09T07:41:06.185Z,8.63
2019-04-09T07:43:38.955Z,9.30
2019-04-09T07:46:32.217Z,7.90
2019-04-09T07:49:03.822Z,9.07
2019-04-09T07:51:52.187Z,9.33
2019-04-09T07:54:46.002Z,9.30
2019-04-09T07:57:19.809Z,9.10
2019-04-09T08:00:01.946Z,8.60
2019-04-09T08:02:30.558Z,8.47
2019-04-09T08:05:18.006Z,8.90
2019-04-09T08:07:59.591Z,9.30
2019-04-09T08:10:31.152Z,9.97
2019-04-09T08:13:06.464Z,9.40
2019-04-09T08:15:53.900Z,8.60
2019-04-09T08:18:33.597Z,10.20
2019-04-09T08:21:12.389Z,9.57
2019-04-09T08:24:02.018Z,8.93
2019-04-09T08:26:48.860Z,8.80
2019-04-09T08:29:40.066Z,8.80
2019-04-09T08:32:29.371Z,9.17
2019-04-09T08:35:13.916Z,8.70
2019-04-09T08:37:56.699Z,9.40
2019-04-09T08:40:27.391Z,10.33
2019-04-09T08:43:05.263Z,9.47
2019-04-09T08:45:53.610Z,9.60
2019-04-09T08:48:41.214Z,9.23
2019-04-09T08:51:20.960Z,9.67
2019-04-09T08:54:02.515Z,9.80
2019-04-09T08:56:44.598Z,9.40
2019-04-09T08:59:34.730Z,10.03
2019-04-09T09:02:16.783Z,10.23
2019-04-09T09:04:54.181Z,9.80
2019-04-09T09:09:57.484Z,9.73
2019-04-09T09:15:25.049Z,9.60
2019-04-09T09:18:01.408Z,10.03
2019-04-09T09:20:50.341Z,9.77
2019-04-09T09:23:22.318Z,10.00
2019-04-09T09:26:09.471Z,11.00
2019-04-09T09:28:57.633Z,9.90
2019-04-09T09:31:33.975Z,9.90
2019-04-09T09:34:06.551Z,10.23
2019-04-09T09:36:45.800Z,10.70
2019-04-09T09:39:18.669Z,10.63
2019-04-09T09:42:06.639Z,10.37
2019-04-09T09:44:43.873Z,11.20
2019-04-09T09:47:22.771Z,10.77
2019-04-09T09:50:07.022Z,10.13
2019-04-09T09:52:52.914Z,10.80
2019-04-09T09:55:37.067Z,11.10
2019-04-09T09:58:24.610Z,10.77
2019-04-09T10:01:06.361Z,11.30
2019-04-09T10:03:29.266Z,10.90
2019-04-09T10:06:05.815Z,10.40
2019-04-09T10:08:52.180Z,9.80
2019-04-09T10:11:37.510Z,10.60
2019-04-09T10:14:07.692Z,10.80
2019-04-09T10:16:54.070Z,11.10
2019-04-09T10:19:28.498Z,10.70
2019-04-09T10:22:20.612Z,10.03
2019-04-09T10:24:52.967Z,10.30
2019-04-09T10:27:39.271Z,10.77
2019-04-09T10:30:27.750Z,10.80
2019-04-09T10:33:02.603Z,10.50
2019-04-09T10:35:35.552Z,10.83
2019-04-09T10:38:17.009Z,10.83
2019-04-09T10:40:50.497Z,10.23
2019-04-09T10:43:26.184Z,11.10
2019-04-09T10:46:01.010Z,10.50
2019-04-09T10:48:32.484Z,10.10
2019-04-09T10:51:06.474Z,10.30
2019-04-09T10:53:37.599Z,11.87
2019-04-09T10:56:19.319Z,11.10
2019-04-09T10:58:54.070Z,11.30
2019-04-09T11:01:42.270Z,10.47
2019-04-09T11:04:13.546Z,11.57
2019-04-09T11:07:03.198Z,11.17
2019-04-09T11:09:32.650Z,10.47
2019-04-09T11:12:04.696Z,10.70
2019-04-09T11:14:43.012Z,10.00
2019-04-09T11:17:29.061Z,9.50
2019-04-09T11:20:10.864Z,9.33
2019-04-09T11:22:55.258Z,9.60
2019-04-09T11:25:28.118Z,9.67
2019-04-09T11:28:02.205Z,9.43
2019-04-09T11:30:36.180Z,10.00
2019-04-09T11:33:09.378Z,9.70
2019-04-09T11:35:56.836Z,9.60
2019-04-09T11:38:26.255Z,10.10
2019-04-09T11:41:10.680Z,9.47
2019-04-09T11:43:56.285Z,9.30
2019-04-09T11:46:38.845Z,9.83
2019-04-09T11:49:10.052Z,9.87
2019-04-09T11:51:54.221Z,9.60
2019-04-09T11:54:32.436Z,8.53
2019-04-09T11:57:22.794Z,9.70
2019-04-09T11:59:57.413Z,9.07
2019-04-09T12:02:33.229Z,9.90
2019-04-09T12:05:07.972Z,9.57
2019-04-09T12:07:42.223Z,9.07
2019-04-09T12:10:18.527Z,9.63
2019-04-09T12:12:51.796Z,9.13
2019-04-09T12:15:23.273Z,10.13
2019-04-09T12:18:07.369Z,10.20
2019-04-09T12:20:55.024Z,10.40
2019-04-09T12:23:32.242Z,9.40
2019-04-09T12:26:04.310Z,9.90
2019-04-09T12:28:42.108Z,10.10
2019-04-09T12:31:12.118Z,9.00
2019-04-09T12:33:58.477Z,9.80
2019-04-09T12:36:45.547Z,9.47
2019-04-09T12:39:36.678Z,10.73
2019-04-09T12:42:10.591Z,9.93
2019-04-09T12:44:40.186Z,10.90
2019-04-09T12:47:17.688Z,10.10
2019-04-09T12:49:51.818Z,10.33
2019-04-09T12:52:42.056Z,9.57
2019-04-09T12:55:19.497Z,9.20
2019-04-09T12:57:54.392Z,9.80
2019-04-09T13:00:28.766Z,10.17
2019-04-09T13:02:58.225Z,10.07
2019-04-09T13:05:32.229Z,9.90
2019-04-09T13:08:19.840Z,9.77
2019-04-09T13:11:07.090Z,10.70
2019-04-09T13:13:55.153Z,10.43
2019-04-09T13:16:43.351Z,12.43
2019-04-09T13:19:15.614Z,10.00
2019-04-09T13:21:49.569Z,10.53
2019-04-09T13:24:27.338Z,11.07
2019-04-09T13:27:02.613Z,11.07
2019-04-09T13:29:52.228Z,10.70
2019-04-09T13:32:37.341Z,10.93
2019-04-09T13:35:03.830Z,14.53
2019-04-09T13:37:41.261Z,11.53
2019-04-09T13:40:16.753Z,11.07
2019-04-09T13:42:51.172Z,10.40
2019-04-09T13:45:23.951Z,10.53
2019-04-09T13:47:55.401Z,11.70
2019-04-09T13:50:24.867Z,12.27
2019-04-09T13:52:56.600Z,10.43
2019-04-09T13:55:26.180Z,10.53
2019-04-09T13:57:56.250Z,9.90
2019-04-09T14:00:29.232Z,10.83
2019-04-09T14:03:26.149Z,10.77
2019-04-09T14:05:43.600Z,11.13
2019-04-09T14:08:13.184Z,11.87
2019-04-09T14:10:47.908Z,10.90
2019-04-09T14:13:14.108Z,11.20
2019-04-09T14:15:44.692Z,10.70
2019-04-09T14:18:14.524Z,10.07
2019-04-09T14:20:45.330Z,10.80
2019-04-09T14:23:15.424Z,10.83
2019-04-09T14:25:45.455Z,10.70
2019-04-09T14:28:15.478Z,10.73
2019-04-09T14:30:45.416Z,9.60
2019-04-09T14:33:14.917Z,9.77
2019-04-09T14:35:44.503Z,10.00
2019-04-09T14:38:14.132Z,8.80
2019-04-09T14:40:43.976Z,9.43
2019-04-09T14:43:15.007Z,8.80
2019-04-09T14:45:44.930Z,9.20
2019-04-09T14:48:15.026Z,9.80
2019-04-09T14:50:44.736Z,8.80
2019-04-09T14:53:15.034Z,9.80
2019-04-09T14:55:44.962Z,9.43
2019-04-09T14:58:15.159Z,9.60
2019-04-09T15:00:45.619Z,9.00
2019-04-09T15:03:24.245Z,9.30
2019-04-09T15:05:47.591Z,8.10
2019-04-09T15:08:17.535Z,8.20
2019-04-09T15:10:47.215Z,9.17
2019-04-09T15:13:19.871Z,8.57
2019-04-09T15:15:49.488Z,8.80
2019-04-09T15:18:19.662Z,8.87
2019-04-09T15:21:08.426Z,8.27
2019-04-09T15:23:38.773Z,9.17
2019-04-09T15:26:09.653Z,9.17
2019-04-09T15:28:39.920Z,8.77
2019-04-09T15:31:10.627Z,9.43
2019-04-09T15:33:41.068Z,9.00
2019-04-09T15:36:11.552Z,8.83
2019-04-09T15:38:41.323Z,8.37
2019-04-09T15:41:11.247Z,9.20
2019-04-09T15:43:44.948Z,8.97
2019-04-09T15:46:15.087Z,8.17
2019-04-09T15:48:45.391Z,8.00
2019-04-09T15:51:15.886Z,8.40
2019-04-09T15:53:47.015Z,9.00
2019-04-09T15:56:18.860Z,8.63
2019-04-09T15:58:48.917Z,9.53
2019-04-09T16:01:19.141Z,8.63
2019-04-09T16:03:55.421Z,8.93
2019-04-09T16:06:21.650Z,8.73
2019-04-09T16:08:51.658Z,9.27
2019-04-09T16:11:22.418Z,8.83
2019-04-09T16:13:53.703Z,9.00
2019-04-09T16:16:23.547Z,8.97
2019-04-09T16:18:53.303Z,8.40
2019-04-09T16:21:23.414Z,7.90
2019-04-09T16:23:52.923Z,8.30
2019-04-09T16:26:22.561Z,8.40
2019-04-09T16:28:52.142Z,7.87
2019-04-09T16:31:22.302Z,7.63
2019-04-09T16:33:59.111Z,8.77
2019-04-09T16:36:29.976Z,8.83
2019-04-09T16:39:02.014Z,8.20
2019-04-09T16:41:32.048Z,9.20
2019-04-09T16:44:01.936Z,9.20
2019-04-09T16:46:32.695Z,8.87
2019-04-09T16:49:02.722Z,8.67
2019-04-09T16:51:33.361Z,9.87
2019-04-09T16:54:04.079Z,9.10
2019-04-09T16:56:36.581Z,8.77
2019-04-09T16:59:06.256Z,9.40
2019-04-09T17:01:36.007Z,9.73
2019-04-09T17:04:18.471Z,9.43
2019-04-09T17:06:37.793Z,9.80
2019-04-09T17:09:24.541Z,9.60
2019-04-09T17:11:42.227Z,9.83
2019-04-09T17:14:11.889Z,12.50
2019-04-09T17:16:46.822Z,9.60
2019-04-09T17:19:17.224Z,10.00
2019-04-09T17:21:47.803Z,9.47
2019-04-09T17:24:18.648Z,10.53
2019-04-09T17:26:50.645Z,9.97
2019-04-09T17:29:21.181Z,9.93
2019-04-09T17:31:51.075Z,9.87
2019-04-09T17:34:27.621Z,10.23
2019-04-09T17:36:52.462Z,9.13
2019-04-09T17:39:22.174Z,10.50
2019-04-09T17:42:14.475Z,9.87
2019-04-09T17:44:44.309Z,10.13
2019-04-09T17:47:14.086Z,11.33
2019-04-09T17:49:47.059Z,11.40
2019-04-09T17:52:17.074Z,9.20
2019-04-09T17:54:46.780Z,9.73
2019-04-09T17:57:18.232Z,9.70
2019-04-09T17:59:48.136Z,8.87
2019-04-09T18:02:18.266Z,7.10
2019-04-09T18:04:52.710Z,7.30
2019-04-09T18:07:20.221Z,6.80
2019-04-09T18:09:50.069Z,6.13
2019-04-09T18:12:20.938Z,6.53
2019-04-09T18:14:53.553Z,6.60
2019-04-09T18:17:23.254Z,5.30
2019-04-09T18:19:53.041Z,5.27
2019-04-09T18:22:24.829Z,4.60
2019-04-09T18:24:55.441Z,4.93
2019-04-09T18:27:27.666Z,5.00
2019-04-09T18:30:02.364Z,4.70
2019-04-09T18:32:32.107Z,4.40
2019-04-09T18:35:03.877Z,3.90
2019-04-09T18:37:34.346Z,3.47
2019-04-09T18:40:08.154Z,3.40
2019-04-09T18:42:37.708Z,3.77
2019-04-09T18:45:08.028Z,3.93
2019-04-09T18:47:38.207Z,3.80
2019-04-09T18:50:10.663Z,3.90
2019-04-09T18:52:40.679Z,14.40
2019-04-09T18:55:11.286Z,3.83
2019-04-09T18:57:41.909Z,4.00
2019-04-09T19:00:13.883Z,3.97
2019-04-09T19:02:45.193Z,3.63
2019-04-09T19:05:17.124Z,3.50
2019-04-09T19:07:48.042Z,4.27
2019-04-09T19:10:18.823Z,4.00
2019-04-09T19:12:48.952Z,4.17
2019-04-09T19:15:18.971Z,4.80
2019-04-09T19:17:49.274Z,4.17
2019-04-09T19:20:19.562Z,4.67
2019-04-09T19:22:51.162Z,4.43
2019-04-09T19:25:20.683Z,3.70
2019-04-09T19:27:50.197Z,4.30
2019-04-09T19:30:20.809Z,4.10
2019-04-09T19:32:51.557Z,3.80
2019-04-09T19:35:27.880Z,3.97
2019-04-09T19:37:53.055Z,5.33
2019-04-09T19:40:24.293Z,4.50
2019-04-09T19:42:54.050Z,4.60
2019-04-09T19:45:28.364Z,4.47
2019-04-09T19:47:58.041Z,4.70
2019-04-09T19:50:27.855Z,3.90
2019-04-09T19:52:57.862Z,4.97
2019-04-09T19:55:28.527Z,4.47
2019-04-09T19:57:58.360Z,4.00
2019-04-09T20:00:31.887Z,4.23
2019-04-09T20:03:05.270Z,4.40
2019-04-09T20:05:38.140Z,4.47
2019-04-09T20:08:09.138Z,4.27
2019-04-09T20:10:40.688Z,3.90
2019-04-09T20:13:12.517Z,4.27
2019-04-09T20:15:42.345Z,4.50
2019-04-09T20:18:13.343Z,4.50
2019-04-09T20:20:43.258Z,6.73
2019-04-09T20:23:14.138Z,5.00
2019-04-09T20:25:44.015Z,4.93
2019-04-09T20:28:14.081Z,4.60
2019-04-09T20:30:44.061Z,4.67
2019-04-09T20:33:14.932Z,4.37
2019-04-09T20:35:49.822Z,4.63
2019-04-09T20:38:18.597Z,5.00
2019-04-09T20:40:48.266Z,4.63
2019-04-09T20:43:18.405Z,4.20
2019-04-09T20:45:48.885Z,4.53
2019-04-09T20:48:19.412Z,5.27
2019-04-09T20:50:50.189Z,5.30
2019-04-09T20:53:20.483Z,4.43
2019-04-09T20:55:50.108Z,5.30
2019-04-09T20:58:20.429Z,5.37
2019-04-09T21:00:50.346Z,4.63
2019-04-09T21:03:22.864Z,5.63
2019-04-09T21:06:00.239Z,5.40
2019-04-09T21:08:25.795Z,5.57
2019-04-09T21:10:55.595Z,5.73
2019-04-09T21:13:25.378Z,5.33
2019-04-09T21:15:55.781Z,4.73
2019-04-09T21:18:25.543Z,5.30
2019-04-09T21:20:55.413Z,5.57
2019-04-09T21:23:26.221Z,5.33
2019-04-09T21:25:55.979Z,5.07
2019-04-09T21:28:25.725Z,5.13
2019-04-09T21:30:55.384Z,4.50
2019-04-09T21:33:25.019Z,5.37
2019-04-09T21:36:05.221Z,5.40
2019-04-09T21:38:27.637Z,5.63
2019-04-09T21:40:58.167Z,5.10
2019-04-09T21:43:28.032Z,4.70
2019-04-09T21:45:59.081Z,5.90
2019-04-09T21:48:29.272Z,5.00
2019-04-09T21:50:59.415Z,4.70
2019-04-09T21:53:29.962Z,5.30
2019-04-09T21:56:00.529Z,6.10
2019-04-09T21:58:30.863Z,5.60
2019-04-09T22:01:07.030Z,6.23
2019-04-09T22:03:36.823Z,5.57
2019-04-09T22:06:18.655Z,5.90
2019-04-09T22:08:38.300Z,5.00
2019-04-09T22:11:08.106Z,5.70
2019-04-09T22:13:37.716Z,5.60
2019-04-09T22:16:09.521Z,5.47
2019-04-09T22:18:39.610Z,5.87
2019-04-09T22:21:09.979Z,6.27
2019-04-09T22:23:46.353Z,5.50
2019-04-09T22:26:11.531Z,6.50
2019-04-09T22:28:44.830Z,6.07
2019-04-09T22:31:16.100Z,5.50
2019-04-09T22:33:46.746Z,5.40
2019-04-09T22:36:29.489Z,5.50
2019-04-09T22:38:47.672Z,5.20
2019-04-09T22:41:17.455Z,5.30
2019-04-09T22:43:47.388Z,5.67
2019-04-09T22:46:20.217Z,5.83
2019-04-09T22:48:52.759Z,5.40
2019-04-09T22:51:23.105Z,5.63
2019-04-09T22:53:52.977Z,5.20
2019-04-09T22:56:22.867Z,4.83
2019-04-09T22:58:53.279Z,4.87
2019-04-09T23:01:26.490Z,5.17
2019-04-09T23:03:55.938Z,6.27
2019-04-09T23:06:27.997Z,5.30
2019-04-09T23:09:05.460Z,5.08
2019-04-09T23:11:36.961Z,5.30
2019-04-09T23:14:06.659Z,4.83
2019-04-09T23:16:37.401Z,7.50
2019-04-09T23:19:07.800Z,4.87
2019-04-09T23:21:37.701Z,5.03
2019-04-09T23:24:07.520Z,5.08
2019-04-09T23:26:37.465Z,5.23
2019-04-09T23:29:07.209Z,5.30
2019-04-09T23:31:36.949Z,4.80
2019-04-09T23:34:06.551Z,5.53
2019-04-09T23:36:36.266Z,5.30
2019-04-09T23:39:08.334Z,5.47
2019-04-09T23:41:38.245Z,5.53
2019-04-09T23:44:08.175Z,5.55
2019-04-09T23:46:37.872Z,4.80
2019-04-09T23:49:07.608Z,5.60
2019-04-09T23:51:37.632Z,5.22
2019-04-09T23:54:07.690Z,5.87
2019-04-09T23:56:37.921Z,5.25
2019-04-09T23:59:10.351Z,6.33
